createdAt,value
2022-08-30T00:02:02.882Z,8.93
2022-08-30T00:04:30.245Z,10.13
2022-08-30T00:06:57.821Z,9.50
2022-08-30T00:09:25.134Z,13.98
2022-08-30T00:11:52.537Z,11.63
2022-08-30T00:14:20.456Z,8.20
2022-08-30T00:16:47.773Z,10.60
2022-08-30T00:19:15.145Z,7.78
2022-08-30T00:21:42.460Z,7.40
2022-08-30T00:24:09.839Z,7.55
2022-08-30T00:26:37.132Z,11.90
2022-08-30T00:29:04.719Z,7.70
2022-08-30T00:31:32.188Z,9.80
2022-08-30T00:33:59.585Z,7.65
2022-08-30T00:36:27.726Z,6.70
2022-08-30T00:38:55.081Z,12.88
2022-08-30T00:41:22.904Z,10.05
2022-08-30T00:43:50.326Z,11.80
2022-08-30T00:46:17.783Z,6.03
2022-08-30T00:48:49.625Z,9.55
2022-08-30T00:51:19.794Z,9.88
2022-08-30T00:53:55.396Z,10.98
2022-08-30T00:56:25.345Z,8.52
2022-08-30T00:58:57.001Z,9.18
2022-08-30T01:01:26.081Z,10.70
2022-08-30T01:03:54.412Z,5.45
2022-08-30T01:06:22.021Z,7.15
2022-08-30T01:08:49.888Z,9.10
2022-08-30T01:11:22.230Z,7.30
2022-08-30T01:13:52.084Z,6.95
2022-08-30T01:16:20.836Z,11.82
2022-08-30T01:18:52.281Z,7.35
2022-08-30T01:21:51.021Z,7.05
2022-08-30T01:24:19.961Z,7.47
2022-08-30T01:26:47.217Z,12.60
2022-08-30T01:29:21.610Z,9.98
2022-08-30T01:31:49.471Z,14.57
2022-08-30T01:34:17.319Z,10.20
2022-08-30T01:36:46.332Z,9.48
2022-08-30T01:39:19.362Z,9.10
2022-08-30T01:41:47.051Z,12.48
2022-08-30T01:44:15.390Z,14.45
2022-08-30T01:46:47.313Z,8.82
2022-08-30T01:49:26.932Z,12.73
2022-08-30T01:54:33.716Z,6.85
2022-08-30T01:57:10.017Z,8.32
2022-08-30T01:59:40.028Z,8.68
2022-08-30T02:02:07.761Z,8.07
2022-08-30T02:04:36.815Z,6.88
2022-08-30T02:07:05.400Z,10.27
2022-08-30T02:09:32.897Z,6.63
2022-08-30T02:12:00.229Z,11.27
2022-08-30T02:14:27.775Z,8.98
2022-08-30T02:16:55.196Z,10.45
2022-08-30T02:19:22.643Z,6.63
2022-08-30T02:21:50.648Z,7.22
2022-08-30T02:24:18.055Z,6.68
2022-08-30T02:26:45.437Z,25.80
2022-08-30T02:29:13.081Z,10.20
2022-08-30T02:31:40.736Z,9.00
2022-08-30T02:34:08.165Z,8.73
2022-08-30T02:36:35.450Z,7.85
2022-08-30T02:39:03.498Z,9.15
2022-08-30T02:41:30.816Z,10.57
2022-08-30T02:44:00.355Z,7.85
2022-08-30T02:46:33.132Z,7.05
2022-08-30T02:49:13.186Z,7.45
2022-08-30T02:51:48.755Z,8.75
2022-08-30T02:54:19.985Z,8.43
2022-08-30T02:56:49.024Z,9.77
2022-08-30T02:59:18.115Z,8.68
2022-08-30T03:01:45.740Z,6.32
2022-08-30T03:04:13.184Z,9.40
2022-08-30T03:06:40.465Z,9.88
2022-08-30T03:09:07.853Z,8.73
2022-08-30T03:11:35.332Z,9.00
2022-08-30T03:14:02.689Z,6.47
2022-08-30T03:16:30.221Z,6.13
2022-08-30T03:18:57.705Z,12.57
2022-08-30T03:21:25.160Z,5.45
2022-08-30T03:23:52.456Z,7.70
2022-08-30T03:26:19.849Z,7.72
2022-08-30T03:28:47.441Z,5.43
2022-08-30T03:31:14.756Z,9.07
2022-08-30T03:33:42.076Z,9.82
2022-08-30T03:36:11.117Z,8.20
2022-08-30T03:38:40.338Z,11.70
2022-08-30T03:41:09.567Z,11.10
2022-08-30T03:43:37.679Z,7.72
2022-08-30T03:46:05.888Z,9.98
2022-08-30T03:48:33.304Z,10.35
2022-08-30T03:51:00.652Z,9.15
2022-08-30T03:53:28.031Z,12.70
2022-08-30T03:55:55.747Z,12.38
2022-08-30T03:58:25.104Z,12.18
2022-08-30T04:00:52.573Z,7.75
2022-08-30T04:03:25.792Z,7.97
2022-08-30T04:05:56.581Z,8.20
2022-08-30T04:08:25.127Z,13.25
2022-08-30T04:10:53.635Z,11.13
2022-08-30T04:13:22.185Z,15.23
2022-08-30T04:15:49.722Z,14.40
2022-08-30T04:18:17.724Z,10.88
2022-08-30T04:20:45.123Z,14.82
2022-08-30T04:23:12.558Z,18.23
2022-08-30T04:25:42.145Z,14.50
2022-08-30T04:28:10.623Z,12.15
2022-08-30T04:30:44.362Z,13.95
2022-08-30T04:33:14.444Z,9.95
2022-08-30T04:35:48.386Z,13.10
2022-08-30T04:38:18.235Z,9.98
2022-08-30T04:40:50.302Z,12.88
2022-08-30T04:43:17.800Z,10.23
2022-08-30T04:45:45.352Z,7.07
2022-08-30T04:48:12.679Z,9.07
2022-08-30T04:50:40.450Z,9.63
2022-08-30T04:53:13.900Z,10.45
2022-08-30T04:55:43.485Z,13.07
2022-08-30T04:58:12.208Z,6.28
2022-08-30T05:00:42.214Z,6.90
2022-08-30T05:03:09.723Z,7.15
2022-08-30T05:05:39.912Z,8.18
2022-08-30T05:08:15.955Z,8.75
2022-08-30T05:10:47.306Z,6.88
2022-08-30T05:13:16.754Z,4.70
2022-08-30T05:15:45.258Z,7.88
2022-08-30T05:18:14.516Z,6.85
2022-08-30T05:20:44.104Z,10.32
2022-08-30T05:23:11.565Z,5.70
2022-08-30T05:25:42.420Z,4.30
2022-08-30T05:28:10.259Z,3.72
2022-08-30T05:30:38.436Z,6.07
2022-08-30T05:33:06.056Z,4.60
2022-08-30T05:35:33.523Z,6.68
2022-08-30T05:38:00.967Z,7.40
2022-08-30T05:40:29.254Z,6.97
2022-08-30T05:42:56.740Z,8.57
2022-08-30T05:45:24.102Z,11.73
2022-08-30T05:47:51.449Z,9.88
2022-08-30T05:50:19.036Z,9.95
2022-08-30T05:52:46.446Z,6.97
2022-08-30T05:55:15.084Z,11.38
2022-08-30T05:57:42.628Z,8.80
2022-08-30T06:00:15.427Z,9.27
2022-08-30T06:02:43.356Z,9.35
2022-08-30T06:05:14.247Z,11.38
2022-08-30T06:07:43.557Z,11.82
2022-08-30T06:10:12.631Z,11.02
2022-08-30T06:12:40.550Z,11.40
2022-08-30T06:15:08.738Z,8.63
2022-08-30T06:17:36.558Z,12.93
2022-08-30T06:20:04.614Z,9.98
2022-08-30T06:22:31.799Z,13.02
2022-08-30T06:24:59.054Z,14.00
2022-08-30T06:27:26.485Z,15.40
2022-08-30T06:29:53.942Z,12.23
2022-08-30T06:32:21.488Z,11.18
2022-08-30T06:34:49.610Z,12.57
2022-08-30T06:37:29.707Z,10.30
2022-08-30T06:39:58.933Z,11.85
2022-08-30T06:42:32.344Z,13.07
2022-08-30T06:45:01.847Z,7.72
2022-08-30T06:47:30.430Z,9.63
2022-08-30T06:49:59.109Z,11.40
2022-08-30T06:52:26.472Z,11.43
2022-08-30T06:54:58.358Z,13.27
2022-08-30T06:57:26.462Z,11.82
2022-08-30T06:59:58.554Z,10.75
2022-08-30T07:02:26.531Z,10.80
2022-08-30T07:04:54.305Z,9.65
2022-08-30T07:07:21.727Z,11.48
2022-08-30T07:09:49.281Z,11.85
2022-08-30T07:12:17.453Z,11.23
2022-08-30T07:14:44.821Z,9.55
2022-08-30T07:17:34.538Z,12.13
2022-08-30T07:20:05.056Z,15.93
2022-08-30T07:22:33.953Z,9.93
2022-08-30T07:25:01.913Z,10.85
2022-08-30T07:27:29.691Z,11.02
2022-08-30T07:29:58.865Z,9.23
2022-08-30T07:32:26.561Z,12.63
2022-08-30T07:34:53.839Z,10.20
2022-08-30T07:37:21.210Z,10.35
2022-08-30T07:39:48.436Z,11.15
2022-08-30T07:42:16.585Z,8.02
2022-08-30T07:44:44.787Z,10.77
2022-08-30T07:47:12.328Z,11.93
2022-08-30T07:49:39.742Z,13.50
2022-08-30T07:52:07.058Z,7.43
2022-08-30T07:54:34.615Z,13.77
2022-08-30T07:57:01.956Z,6.35
2022-08-30T07:59:31.819Z,8.85
2022-08-30T08:02:01.752Z,8.45
2022-08-30T08:04:29.120Z,9.00
2022-08-30T08:06:56.639Z,10.35
2022-08-30T08:09:23.998Z,6.43
2022-08-30T08:11:51.338Z,7.22
2022-08-30T08:14:19.033Z,8.40
2022-08-30T08:16:46.757Z,7.78
2022-08-30T08:19:14.223Z,5.55
2022-08-30T08:21:41.635Z,6.95
2022-08-30T08:24:09.420Z,8.15
2022-08-30T08:26:41.029Z,11.02
2022-08-30T08:29:12.753Z,9.45
2022-08-30T08:31:41.695Z,5.70
2022-08-30T08:34:09.263Z,6.43
2022-08-30T08:36:36.846Z,8.27
2022-08-30T08:39:07.772Z,7.20
2022-08-30T08:42:33.743Z,10.63
2022-08-30T08:45:14.744Z,7.65
2022-08-30T08:47:53.927Z,7.82
2022-08-30T08:50:24.217Z,4.65
2022-08-30T08:53:36.160Z,6.30
2022-08-30T08:56:12.670Z,4.70
2022-08-30T08:58:51.505Z,8.07
2022-08-30T09:01:24.001Z,7.63
2022-08-30T09:03:52.118Z,9.43
2022-08-30T09:06:49.926Z,8.20
2022-08-30T09:09:28.558Z,8.38
2022-08-30T09:11:56.014Z,6.57
2022-08-30T09:14:34.850Z,7.22
2022-08-30T09:17:09.955Z,9.55
2022-08-30T09:19:57.119Z,4.90
2022-08-30T09:22:29.231Z,7.00
2022-08-30T09:25:06.896Z,8.63
2022-08-30T09:27:47.162Z,9.13
2022-08-30T09:30:28.573Z,7.55
2022-08-30T09:32:57.112Z,8.07
2022-08-30T09:35:43.867Z,8.25
2022-08-30T09:38:35.999Z,5.88
2022-08-30T09:41:44.448Z,6.18
2022-08-30T09:44:24.524Z,8.68
2022-08-30T09:46:58.859Z,8.60
2022-08-30T09:49:38.112Z,5.78
2022-08-30T09:55:14.488Z,4.28
2022-08-30T09:58:25.725Z,6.93
2022-08-30T10:01:20.436Z,6.78
2022-08-30T10:04:31.034Z,12.30
2022-08-30T10:07:29.031Z,9.63
2022-08-30T10:10:30.495Z,13.80
2022-08-30T10:13:33.731Z,9.63
2022-08-30T10:16:06.577Z,7.10
2022-08-30T10:19:16.406Z,7.30
2022-08-30T10:21:58.331Z,11.43
2022-08-30T10:24:44.028Z,10.18
2022-08-30T10:27:25.999Z,5.57
2022-08-30T10:30:15.182Z,8.85
2022-08-30T10:33:06.812Z,6.75
2022-08-30T10:35:53.224Z,6.45
2022-08-30T10:38:41.083Z,6.65
2022-08-30T10:41:28.369Z,8.80
2022-08-30T10:44:07.050Z,5.05
2022-08-30T10:46:48.440Z,10.40
2022-08-30T10:49:23.416Z,10.43
2022-08-30T10:52:13.763Z,8.35
2022-08-30T10:55:09.891Z,8.65
2022-08-30T10:57:38.759Z,9.13
2022-08-30T11:00:23.403Z,8.70
2022-08-30T11:03:20.331Z,6.32
2022-08-30T11:06:22.862Z,5.03
2022-08-30T11:09:04.908Z,4.05
2022-08-30T11:12:13.597Z,7.25
2022-08-30T11:14:46.615Z,5.10
2022-08-30T11:17:37.190Z,6.25
2022-08-30T11:20:21.400Z,6.72
2022-08-30T11:23:19.549Z,7.20
2022-08-30T11:25:57.852Z,5.20
2022-08-30T11:28:37.556Z,6.15
2022-08-30T11:34:01.334Z,5.50
2022-08-30T11:36:46.130Z,6.72
2022-08-30T11:39:43.114Z,7.80
2022-08-30T11:45:25.295Z,6.85
2022-08-30T11:48:10.055Z,5.85
2022-08-30T11:51:07.173Z,9.70
2022-08-30T11:54:01.321Z,6.47
2022-08-30T11:57:03.230Z,6.28
2022-08-30T11:59:49.393Z,7.45
2022-08-30T12:02:47.752Z,7.25
2022-08-30T12:05:38.698Z,7.22
2022-08-30T12:08:37.310Z,4.95
2022-08-30T12:11:27.801Z,6.18
2022-08-30T12:13:56.769Z,9.05
2022-08-30T12:17:01.679Z,7.75
2022-08-30T12:19:32.502Z,4.40
2022-08-30T12:22:08.562Z,7.38
2022-08-30T12:24:44.335Z,5.45
2022-08-30T12:27:32.534Z,8.18
2022-08-30T12:30:08.888Z,7.10
2022-08-30T12:32:50.601Z,5.28
2022-08-30T12:35:25.878Z,7.13
2022-08-30T12:38:01.720Z,7.82
2022-08-30T12:40:31.826Z,7.25
2022-08-30T12:45:39.730Z,4.15
2022-08-30T12:48:11.764Z,7.38
2022-08-30T12:50:57.706Z,4.65
2022-08-30T12:53:33.470Z,4.45
2022-08-30T12:56:09.449Z,6.32
2022-08-30T12:58:52.900Z,6.45
2022-08-30T13:01:32.490Z,7.00
2022-08-30T13:04:19.892Z,4.97
2022-08-30T13:07:02.272Z,4.35
2022-08-30T13:09:42.779Z,3.00
2022-08-30T13:12:24.263Z,3.78
2022-08-30T13:14:53.913Z,3.90
2022-08-30T13:17:24.493Z,3.03
2022-08-30T13:20:27.492Z,5.55
2022-08-30T13:23:10.994Z,3.25
2022-08-30T13:25:40.035Z,4.50
2022-08-30T13:28:08.313Z,4.53
2022-08-30T13:30:36.200Z,5.75
2022-08-30T13:33:03.606Z,5.18
2022-08-30T13:35:32.602Z,4.10
2022-08-30T13:38:02.031Z,3.97
2022-08-30T13:40:29.450Z,2.45
2022-08-30T13:42:58.791Z,4.65
2022-08-30T13:45:42.217Z,7.57
2022-08-30T13:48:11.975Z,5.28
2022-08-30T13:50:39.650Z,4.03
2022-08-30T13:53:09.294Z,4.15
2022-08-30T13:58:06.340Z,3.35
2022-08-30T14:00:36.923Z,3.47
2022-08-30T14:03:05.485Z,4.65
2022-08-30T14:06:05.240Z,4.30
2022-08-30T14:08:48.544Z,5.95
2022-08-30T14:11:21.178Z,4.95
2022-08-30T14:16:43.252Z,3.55
2022-08-30T14:19:12.671Z,5.38
2022-08-30T14:21:40.546Z,3.67
2022-08-30T14:24:08.253Z,5.55
2022-08-30T14:26:45.859Z,4.05
2022-08-30T14:29:18.464Z,4.88
2022-08-30T14:31:48.740Z,3.95
2022-08-30T14:34:17.676Z,3.63
2022-08-30T14:36:47.105Z,4.28
2022-08-30T14:39:19.118Z,4.10
2022-08-30T14:41:53.645Z,5.47
2022-08-30T14:44:25.134Z,5.00
2022-08-30T14:46:52.468Z,7.72
2022-08-30T14:49:21.484Z,3.90
2022-08-30T14:51:49.533Z,5.28
2022-08-30T14:54:20.206Z,6.47
2022-08-30T14:56:47.751Z,8.48
2022-08-30T14:59:16.431Z,4.68
2022-08-30T15:01:45.116Z,3.95
2022-08-30T15:04:14.946Z,4.85
2022-08-30T15:06:45.586Z,7.22
2022-08-30T15:09:18.682Z,4.63
2022-08-30T15:11:53.618Z,3.67
2022-08-30T15:14:24.089Z,4.68
2022-08-30T15:16:55.393Z,7.78
2022-08-30T15:19:23.066Z,5.60
2022-08-30T15:21:51.400Z,6.03
2022-08-30T15:24:27.653Z,4.90
2022-08-30T15:26:59.491Z,4.50
2022-08-30T15:29:27.990Z,5.75
2022-08-30T15:31:59.205Z,4.65
2022-08-30T15:34:28.332Z,4.68
2022-08-30T15:36:57.395Z,4.50
2022-08-30T15:39:25.004Z,4.88
2022-08-30T15:41:58.443Z,4.22
2022-08-30T15:44:27.869Z,5.10
2022-08-30T15:46:55.423Z,3.83
2022-08-30T15:49:24.791Z,5.90
2022-08-30T15:51:54.196Z,4.20
2022-08-30T15:54:23.985Z,4.57
2022-08-30T15:56:59.235Z,6.10
2022-08-30T15:59:31.956Z,7.45
2022-08-30T16:02:00.048Z,4.15
2022-08-30T16:04:27.624Z,4.45
2022-08-30T16:06:55.055Z,8.73
2022-08-30T16:09:23.527Z,11.55
2022-08-30T16:11:50.876Z,5.72
2022-08-30T16:14:18.360Z,6.18
2022-08-30T16:16:48.689Z,5.32
2022-08-30T16:21:44.196Z,5.93
2022-08-30T16:24:13.757Z,5.50
2022-08-30T16:26:43.131Z,9.10
2022-08-30T16:29:12.546Z,6.60
2022-08-30T16:31:43.569Z,5.00
2022-08-30T16:34:16.261Z,5.22
2022-08-30T16:36:43.752Z,5.57
2022-08-30T16:39:13.499Z,4.75
2022-08-30T16:41:41.864Z,4.80
2022-08-30T16:44:09.929Z,7.20
2022-08-30T16:46:41.389Z,9.75
2022-08-30T16:49:10.456Z,8.10
2022-08-30T16:51:38.541Z,5.47
2022-08-30T16:54:08.205Z,6.40
2022-08-30T16:59:10.902Z,4.35
2022-08-30T17:01:39.656Z,5.18
2022-08-30T17:04:08.404Z,4.60
2022-08-30T17:06:36.713Z,6.45
2022-08-30T17:09:06.506Z,7.75
2022-08-30T17:11:36.510Z,7.32
2022-08-30T17:14:04.753Z,5.60
2022-08-30T17:16:34.293Z,9.80
2022-08-30T17:19:01.882Z,5.50
2022-08-30T17:21:30.114Z,6.60
2022-08-30T17:24:01.850Z,4.10
2022-08-30T17:26:33.755Z,4.53
2022-08-30T17:29:01.480Z,5.55
2022-08-30T17:34:18.458Z,6.47
2022-08-30T17:36:46.213Z,4.60
2022-08-30T17:39:13.505Z,5.47
2022-08-30T17:41:50.546Z,4.53
2022-08-30T17:44:25.878Z,7.60
2022-08-30T17:47:11.811Z,5.45
2022-08-30T17:49:39.674Z,3.60
2022-08-30T17:52:07.114Z,3.53
2022-08-30T17:54:36.069Z,4.65
2022-08-30T17:57:11.308Z,10.20
2022-08-30T17:59:40.437Z,4.35
2022-08-30T18:02:11.255Z,4.32
2022-08-30T18:04:41.557Z,4.72
2022-08-30T18:07:11.880Z,7.55
2022-08-30T18:09:41.171Z,3.72
2022-08-30T18:12:10.526Z,5.70
2022-08-30T18:14:39.326Z,12.57
2022-08-30T18:17:08.192Z,5.70
2022-08-30T18:19:36.637Z,4.93
2022-08-30T18:22:16.129Z,4.70
2022-08-30T18:24:43.921Z,4.00
2022-08-30T18:27:11.371Z,6.32
2022-08-30T18:29:41.327Z,5.70
2022-08-30T18:34:56.049Z,3.95
2022-08-30T18:37:25.263Z,5.32
2022-08-30T18:39:52.774Z,3.80
2022-08-30T18:42:20.091Z,4.20
2022-08-30T18:44:48.145Z,8.30
2022-08-30T18:47:15.557Z,8.02
2022-08-30T18:49:43.972Z,8.70
2022-08-30T18:52:12.125Z,6.32
2022-08-30T18:54:52.769Z,5.78
2022-08-30T18:57:22.200Z,3.80
2022-08-30T18:59:50.228Z,6.25
2022-08-30T19:02:17.947Z,5.82
2022-08-30T19:04:47.231Z,6.78
2022-08-30T19:07:17.255Z,6.13
2022-08-30T19:09:46.877Z,7.00
2022-08-30T19:12:15.086Z,6.88
2022-08-30T19:14:43.456Z,8.70
2022-08-30T19:17:11.485Z,7.53
2022-08-30T19:19:46.354Z,7.95
2022-08-30T19:22:18.845Z,8.02
2022-08-30T19:24:47.496Z,6.30
2022-08-30T19:27:15.097Z,6.03
2022-08-30T19:29:42.917Z,4.50
2022-08-30T19:32:13.101Z,5.93
2022-08-30T19:34:40.759Z,8.45
2022-08-30T19:37:08.785Z,4.93
2022-08-30T19:39:43.283Z,7.82
2022-08-30T19:42:14.446Z,9.98
2022-08-30T19:44:41.811Z,6.60
2022-08-30T19:47:11.132Z,5.43
2022-08-30T19:49:38.669Z,6.30
2022-08-30T19:52:05.982Z,4.75
2022-08-30T19:54:33.496Z,6.28
2022-08-30T19:57:00.937Z,5.50
2022-08-30T19:59:28.449Z,7.38
2022-08-30T20:01:57.125Z,8.30
2022-08-30T20:04:24.475Z,5.88
2022-08-30T20:06:51.860Z,9.60
2022-08-30T20:09:22.196Z,13.07
2022-08-30T20:11:52.544Z,5.22
2022-08-30T20:14:23.006Z,6.82
2022-08-30T20:16:52.153Z,6.70
2022-08-30T20:19:21.837Z,6.65
2022-08-30T20:21:55.305Z,7.35
2022-08-30T20:24:23.739Z,5.45
2022-08-30T20:24:27.094Z,4.38
2022-08-30T20:24:31.674Z,9.82
2022-08-30T20:26:59.388Z,7.50
2022-08-30T20:29:26.809Z,9.20
2022-08-30T20:31:54.184Z,7.25
2022-08-30T20:34:27.340Z,7.32
2022-08-30T20:36:56.465Z,10.45
2022-08-30T20:39:24.349Z,9.73
2022-08-30T20:41:52.130Z,11.70
2022-08-30T20:44:19.498Z,9.02
2022-08-30T20:46:49.655Z,8.25
2022-08-30T20:49:19.730Z,8.60
2022-08-30T20:51:52.306Z,8.98
2022-08-30T20:54:20.418Z,9.38
2022-08-30T20:56:47.885Z,6.43
2022-08-30T20:59:15.208Z,9.18
2022-08-30T21:01:43.686Z,10.88
2022-08-30T21:04:11.043Z,7.53
2022-08-30T21:06:38.822Z,8.52
2022-08-30T21:09:08.683Z,8.15
2022-08-30T21:11:38.202Z,10.52
2022-08-30T21:14:12.648Z,8.80
2022-08-30T21:16:40.121Z,12.27
2022-08-30T21:19:07.499Z,11.13
2022-08-30T21:21:35.022Z,10.10
2022-08-30T21:24:09.511Z,8.50
2022-08-30T21:26:40.377Z,8.68
2022-08-30T21:29:08.162Z,13.38
2022-08-30T21:31:39.852Z,11.95
2022-08-30T21:34:08.031Z,9.23
2022-08-30T21:36:48.595Z,8.70
2022-08-30T21:39:28.412Z,8.37
2022-08-30T21:41:57.170Z,10.02
2022-08-30T21:44:27.239Z,12.40
2022-08-30T21:46:55.732Z,11.35
2022-08-30T21:49:24.976Z,21.92
2022-08-30T21:51:54.798Z,14.70
2022-08-30T21:54:24.276Z,14.68
2022-08-30T21:56:54.027Z,12.43
2022-08-30T21:59:21.997Z,26.67
2022-08-30T22:01:50.273Z,22.27
2022-08-30T22:04:19.426Z,18.30
2022-08-30T22:06:50.331Z,18.20
2022-08-30T22:09:24.972Z,46.58
2022-08-30T22:11:53.675Z,18.13
2022-08-30T22:14:22.108Z,17.83
2022-08-30T22:16:50.261Z,14.30
2022-08-30T22:19:22.900Z,19.10
2022-08-30T22:21:51.892Z,17.08
2022-08-30T22:24:21.805Z,19.73
2022-08-30T22:26:49.317Z,16.58
2022-08-30T22:29:17.397Z,15.15
2022-08-30T22:31:44.907Z,21.38
2022-08-30T22:34:12.658Z,15.60
2022-08-30T22:36:40.584Z,20.30
2022-08-30T22:39:09.812Z,17.42
2022-08-30T22:41:38.395Z,18.27
2022-08-30T22:44:06.448Z,11.63
2022-08-30T22:46:35.583Z,12.85
2022-08-30T22:49:06.868Z,16.40
2022-08-30T22:51:34.997Z,14.18
2022-08-30T22:54:05.006Z,14.25
2022-08-30T22:56:34.963Z,10.18
2022-08-30T22:59:03.366Z,12.05
2022-08-30T23:01:35.545Z,11.95
2022-08-30T23:04:05.851Z,13.95
2022-08-30T23:06:34.323Z,12.60
2022-08-30T23:09:02.411Z,31.95
2022-08-30T23:11:30.667Z,12.82
2022-08-30T23:14:02.166Z,11.95
2022-08-30T23:16:30.319Z,19.92
2022-08-30T23:18:57.850Z,12.65
2022-08-30T23:21:28.867Z,12.13
2022-08-30T23:24:16.396Z,12.18
2022-08-30T23:27:03.754Z,19.00
2022-08-30T23:29:50.851Z,11.88
2022-08-30T23:32:37.029Z,12.18
2022-08-30T23:35:29.043Z,10.70
2022-08-30T23:38:18.250Z,10.70
2022-08-30T23:41:04.280Z,15.10
2022-08-30T23:43:50.332Z,9.35
2022-08-30T23:46:36.168Z,10.77
2022-08-30T23:49:22.736Z,11.43
2022-08-30T23:52:08.747Z,10.95
2022-08-30T23:54:57.436Z,8.60
2022-08-30T23:57:44.918Z,16.20
